Time;durP1;ratioP1;P1;durP2;ratioP2;P2;SDS_P1;SDS_P2;PMS_P1;PMS_P2;Temp;Humidity;BMP_temperature;BMP_pressure;BME280_temperature;BME280_humidity;BME280_pressure;Samples;Min_cycle;Max_cycle;Signal;HPM_P1;HPM_P2
2022/01/31 00:02:27;;;;;;;17.95;6.82;;;;;;;3.27;91.78;101409.63;5247816;28;20048;-67
2022/01/31 00:04:58;;;;;;;19.52;6.25;;;;;;;3.31;91.45;101392.78;5251823;28;20127;-67
2022/01/31 00:07:30;;;;;;;13.25;5.97;;;;;;;3.32;92.13;101373.41;5250623;28;20052;-67
2022/01/31 00:10:07;;;;;;;24.02;7.47;;;;;;;3.32;92.42;101341.78;5250301;28;20037;-67
2022/01/31 00:12:50;;;;;;;16.75;6.60;;;;;;;3.33;92.24;101331.13;5250629;28;20047;-67
2022/01/31 00:15:22;;;;;;;20.00;6.43;;;;;;;3.37;92.20;101333.66;5249696;28;20049;-67
2022/01/31 00:17:53;;;;;;;23.95;7.63;;;;;;;3.36;92.20;101327.53;5250244;28;20188;-67
2022/01/31 00:20:24;;;;;;;20.85;6.97;;;;;;;3.40;92.05;101328.28;5249039;28;20227;-67
2022/01/31 00:22:56;;;;;;;21.63;6.30;;;;;;;3.44;91.85;101308.78;5250734;28;20028;-67
2022/01/31 00:25:27;;;;;;;19.00;6.15;;;;;;;3.47;91.84;101303.38;5248498;28;20033;-67
2022/01/31 00:27:58;;;;;;;16.00;6.80;;;;;;;3.49;92.08;101297.13;5248000;28;20042;-67
2022/01/31 00:30:30;;;;;;;15.18;5.85;;;;;;;3.57;92.37;101288.03;5251526;28;20398;-67
2022/01/31 00:33:01;;;;;;;20.95;6.75;;;;;;;3.54;92.70;101275.81;5249772;28;20563;-67
2022/01/31 00:35:32;;;;;;;16.80;6.03;;;;;;;3.54;93.05;101275.81;5251280;28;20063;-67
2022/01/31 00:38:04;;;;;;;22.80;6.70;;;;;;;3.58;93.77;101258.94;5250480;28;20029;-67
2022/01/31 00:40:41;;;;;;;21.75;6.47;;;;;;;3.59;94.56;101246.63;5249549;28;20029;-65
2022/01/31 00:43:14;;;;;;;19.75;6.22;;;;;;;3.60;95.31;101237.78;5251376;28;20067;-65
2022/01/31 00:45:57;;;;;;;28.02;8.05;;;;;;;3.58;95.77;101218.53;5249141;28;20035;-65
2022/01/31 00:48:34;;;;;;;19.73;6.60;;;;;;;3.57;97.35;101212.41;5249083;28;20041;-66
2022/01/31 00:51:05;;;;;;;19.30;6.53;;;;;;;3.54;98.03;101196.69;5248363;28;20025;-66
2022/01/31 00:53:37;;;;;;;16.75;6.63;;;;;;;3.46;98.77;101186.44;5247990;28;20043;-66
2022/01/31 00:56:08;;;;;;;22.35;6.70;;;;;;;3.41;100.00;101177.84;5242013;28;20040;-66
2022/01/31 00:58:40;;;;;;;25.23;7.03;;;;;;;3.41;100.00;101169.09;5247973;28;20041;-66
2022/01/31 01:01:11;;;;;;;24.85;7.40;;;;;;;3.37;100.00;101152.53;5248677;28;20033;-66
2022/01/31 01:03:42;;;;;;;18.58;6.30;;;;;;;3.37;100.00;101146.41;5244084;28;20037;-66
2022/01/31 01:06:14;;;;;;;23.67;7.75;;;;;;;3.40;100.00;101128.69;5249348;28;20048;-66
2022/01/31 01:08:45;;;;;;;23.52;8.23;;;;;;;3.36;100.00;101137.66;5246376;28;20047;-66
2022/01/31 01:11:16;;;;;;;23.25;7.25;;;;;;;3.34;100.00;101132.44;5249414;28;20025;-66
2022/01/31 01:13:48;;;;;;;22.17;6.88;;;;;;;3.33;100.00;101108.75;5251154;28;20075;-66
2022/01/31 01:16:19;;;;;;;22.30;7.47;;;;;;;3.34;100.00;101106.06;5249487;28;20517;-66
2022/01/31 01:18:50;;;;;;;24.63;7.03;;;;;;;3.39;100.00;101094.44;5247864;28;20481;-66
2022/01/31 01:21:21;;;;;;;25.00;7.45;;;;;;;3.38;100.00;101077.78;5248453;28;20497;-66
2022/01/31 01:23:53;;;;;;;25.08;8.10;;;;;;;3.37;100.00;101062.00;5247881;28;20036;-67
2022/01/31 01:26:24;;;;;;;23.70;7.55;;;;;;;3.33;100.00;101059.50;5249476;28;20072;-68
2022/01/31 01:28:55;;;;;;;20.15;7.93;;;;;;;3.33;100.00;101043.66;5247286;28;20410;-68
2022/01/31 01:31:27;;;;;;;32.38;8.50;;;;;;;3.37;100.00;101027.72;5247528;28;20120;-69
2022/01/31 01:33:58;;;;;;;27.67;9.23;;;;;;;3.38;100.00;101032.09;5246650;28;20026;-69
2022/01/31 01:36:31;;;;;;;24.88;8.75;;;;;;;3.33;100.00;101024.38;5244898;28;20025;-70
2022/01/31 01:39:02;;;;;;;28.02;9.23;;;;;;;3.36;100.00;101018.97;5245879;28;20031;-71
2022/01/31 01:41:34;;;;;;;26.35;10.07;;;;;;;3.34;100.00;101008.47;5250004;28;20033;-71
2022/01/31 01:44:05;;;;;;;28.63;9.52;;;;;;;3.33;100.00;101005.91;5249595;28;20490;-72
2022/01/31 01:46:36;;;;;;;35.17;10.05;;;;;;;3.33;100.00;101001.47;5245072;28;20118;-73
2022/01/31 01:49:07;;;;;;;27.55;10.00;;;;;;;3.37;100.00;100977.63;5248688;28;20029;-73
2022/01/31 01:51:39;;;;;;;31.55;9.63;;;;;;;3.39;100.00;100967.84;5246915;28;20055;-72
2022/01/31 01:54:10;;;;;;;33.92;9.63;;;;;;;3.40;100.00;100956.41;5247062;28;20028;-73
2022/01/31 01:56:41;;;;;;;26.98;9.95;;;;;;;3.39;100.00;100936.22;5248998;28;20752;-73
2022/01/31 01:59:12;;;;;;;32.55;9.93;;;;;;;3.46;100.00;100932.38;5245079;28;20037;-74
2022/01/31 02:01:44;;;;;;;30.05;10.10;;;;;;;3.41;100.00;100926.44;5252754;28;20372;-74
2022/01/31 02:04:15;;;;;;;30.13;9.55;;;;;;;3.44;100.00;100907.84;5248360;28;20116;-73
2022/01/31 02:06:46;;;;;;;30.88;9.70;;;;;;;3.42;100.00;100907.91;5244515;28;20156;-74
2022/01/31 02:09:22;;;;;;;33.00;10.05;;;;;;;3.43;100.00;100901.72;5246382;28;20032;-74
2022/01/31 02:11:57;;;;;;;24.80;9.43;;;;;;;3.47;100.00;100900.66;5246069;28;20430;-74
2022/01/31 02:14:31;;;;;;;28.20;9.93;;;;;;;3.50;100.00;100894.38;5247313;28;20049;-74
2022/01/31 02:17:02;;;;;;;25.08;9.57;;;;;;;3.47;100.00;100895.38;5251421;28;20502;-75
2022/01/31 02:19:34;;;;;;;26.40;9.23;;;;;;;3.50;100.00;100881.19;5251059;28;20036;-74
2022/01/31 02:22:05;;;;;;;26.25;10.60;;;;;;;3.52;100.00;100872.25;5251748;28;20017;-75
2022/01/31 02:24:36;;;;;;;25.60;10.15;;;;;;;3.54;100.00;100865.13;5253350;28;20083;-75
2022/01/31 02:27:07;;;;;;;26.58;9.73;;;;;;;3.59;100.00;100858.81;5248439;28;20029;-74
2022/01/31 02:29:39;;;;;;;23.98;9.32;;;;;;;3.59;100.00;100878.13;5254050;28;20092;-75
2022/01/31 02:32:12;;;;;;;29.23;11.05;;;;;;;3.61;100.00;100876.28;5251894;28;20076;-75
2022/01/31 02:34:43;;;;;;;32.15;10.68;;;;;;;3.62;100.00;100880.59;5251247;28;20423;-76
2022/01/31 02:37:15;;;;;;;30.77;9.95;;;;;;;3.65;100.00;100876.97;5253224;28;20036;-75
2022/01/31 02:39:46;;;;;;;23.52;11.85;;;;;;;3.68;100.00;100887.38;5250864;28;20110;-76
2022/01/31 02:42:18;;;;;;;26.73;11.77;;;;;;;3.66;100.00;100847.91;5246716;28;20043;-76
2022/01/31 02:44:49;;;;;;;36.28;13.02;;;;;;;3.72;100.00;100841.44;5247307;28;20480;-76
2022/01/31 02:47:27;;;;;;;27.55;12.38;;;;;;;3.73;100.00;100830.81;5250877;28;20500;-76
2022/01/31 02:50:01;;;;;;;27.20;12.50;;;;;;;3.80;100.00;100841.94;5251953;28;20036;-76
2022/01/31 02:52:35;;;;;;;27.83;13.10;;;;;;;3.83;100.00;100833.00;5242531;28;20025;-76
2022/01/31 02:55:07;;;;;;;22.75;12.13;;;;;;;3.87;100.00;100824.91;5249636;28;20039;-76
2022/01/31 02:57:38;;;;;;;29.73;13.07;;;;;;;3.90;100.00;100815.97;5246226;28;20036;-76
2022/01/31 03:00:12;;;;;;;24.02;12.90;;;;;;;3.98;100.00;100826.97;5247510;28;20079;-76
2022/01/31 03:02:43;;;;;;;;;;;;;;;3.97;100.00;100824.41;5245686;28;20032;-76
2022/01/31 03:05:15;;;;;;;23.27;12.40;;;;;;;4.05;100.00;100817.00;5244531;28;20066;-75
2022/01/31 03:07:46;;;;;;;29.95;13.10;;;;;;;4.08;100.00;100812.38;5244664;28;20031;-75
2022/01/31 03:10:17;;;;;;;29.92;13.07;;;;;;;4.13;100.00;100823.59;5248580;28;20025;-76
2022/01/31 03:12:49;;;;;;;25.63;13.43;;;;;;;4.21;100.00;100838.19;5249603;28;20095;-75
2022/01/31 03:15:20;;;;;;;24.15;12.43;;;;;;;4.22;100.00;100827.56;5246359;28;20060;-76
2022/01/31 03:17:52;;;;;;;29.15;12.38;;;;;;;4.27;100.00;100816.75;5248038;28;20029;-75
2022/01/31 03:20:24;;;;;;;31.83;13.07;;;;;;;4.29;100.00;100804.31;5242837;28;20465;-75
2022/01/31 03:22:55;;;;;;;27.75;11.15;;;;;;;4.26;100.00;100788.66;5247678;28;20534;-74
2022/01/31 03:25:26;;;;;;;25.52;10.52;;;;;;;4.29;100.00;100786.69;5248925;28;20086;-74
2022/01/31 03:27:58;;;;;;;31.88;10.13;;;;;;;4.28;100.00;100782.34;5242182;28;20436;-75
2022/01/31 03:30:29;;;;;;;26.00;8.50;;;;;;;4.36;100.00;100791.66;5244891;28;20028;-74
2022/01/31 03:33:00;;;;;;;29.27;9.60;;;;;;;4.35;100.00;100790.78;5245149;28;20040;-74
2022/01/31 03:35:32;;;;;;;32.53;8.45;;;;;;;4.35;100.00;100782.03;5242657;28;20036;-74
2022/01/31 03:38:03;;;;;;;24.00;7.32;;;;;;;4.31;100.00;100774.28;5252111;28;20039;-74
2022/01/31 03:40:34;;;;;;;31.80;7.65;;;;;;;4.35;100.00;100772.31;5248725;28;20363;-74
2022/01/31 03:43:05;;;;;;;23.38;7.60;;;;;;;4.37;100.00;100767.78;5251355;28;20029;-73
2022/01/31 03:45:37;;;;;;;28.77;8.05;;;;;;;4.39;100.00;100768.59;5244179;28;20108;-73
2022/01/31 03:48:08;;;;;;;32.45;7.18;;;;;;;4.38;100.00;100758.09;5243796;28;20029;-73
2022/01/31 03:50:40;;;;;;;21.63;6.93;;;;;;;4.41;100.00;100755.28;5243993;28;20132;-75
2022/01/31 03:53:11;;;;;;;25.27;6.55;;;;;;;4.42;100.00;100759.66;5242054;28;20037;-73
2022/01/31 03:55:42;;;;;;;25.40;5.63;;;;;;;4.46;100.00;100753.28;5250889;28;20091;-74
2022/01/31 03:58:13;;;;;;;27.05;6.10;;;;;;;4.46;100.00;100755.91;5253238;28;20056;-73
2022/01/31 04:00:45;;;;;;;21.80;5.40;;;;;;;4.47;100.00;100776.13;5255087;28;20021;-74
2022/01/31 04:03:16;;;;;;;22.67;5.10;;;;;;;4.53;100.00;100759.94;5248477;28;20021;-74
2022/01/31 04:05:48;;;;;;;18.40;4.00;;;;;;;4.54;100.00;100774.84;5254049;28;20036;-73
2022/01/31 04:08:19;;;;;;;18.02;4.50;;;;;;;4.53;100.00;100773.16;5250755;28;20021;-73
2022/01/31 04:10:50;;;;;;;24.77;4.20;;;;;;;4.53;100.00;100778.44;5250496;28;20150;-73
2022/01/31 04:13:22;;;;;;;18.70;3.95;;;;;;;4.53;100.00;100765.22;5250249;28;20532;-73
2022/01/31 04:15:53;;;;;;;18.88;4.68;;;;;;;4.51;100.00;100759.19;5254816;28;20140;-73
2022/01/31 04:18:24;;;;;;;19.13;4.07;;;;;;;4.54;100.00;100764.28;5249106;28;20036;-73
2022/01/31 04:20:56;;;;;;;18.88;3.13;;;;;;;4.52;100.00;100755.56;5252812;28;20112;-72
2022/01/31 04:23:29;;;;;;;20.73;3.72;;;;;;;4.51;100.00;100746.81;5249645;28;20025;-72
2022/01/31 04:26:10;;;;;;;19.25;4.38;;;;;;;4.48;100.00;100739.03;5251545;28;20147;-72
2022/01/31 04:29:01;;;;;;;16.38;3.20;;;;;;;4.46;100.00;100740.06;5253199;28;20024;-73
2022/01/31 04:31:40;;;;;;;18.13;3.17;;;;;;;4.43;100.00;100743.72;5248409;28;20091;-72
2022/01/31 04:34:12;;;;;;;16.08;3.17;;;;;;;4.44;100.00;100739.28;5255110;28;20130;-72
2022/01/31 04:36:44;;;;;;;22.70;4.35;;;;;;;4.44;100.00;100757.78;5249453;28;20033;-72
2022/01/31 04:39:18;;;;;;;16.80;3.42;;;;;;;4.40;100.00;100740.38;5247021;28;20437;-72
2022/01/31 04:41:50;;;;;;;21.73;3.42;;;;;;;4.39;100.00;100739.53;5251911;28;20026;-72
2022/01/31 04:44:22;;;;;;;20.00;3.13;;;;;;;4.37;100.00;100736.09;5250478;28;20031;-71
2022/01/31 04:46:54;;;;;;;17.38;3.05;;;;;;;4.35;100.00;100751.19;5252259;28;20574;-71
2022/01/31 04:49:25;;;;;;;19.95;3.22;;;;;;;4.33;100.00;100747.75;5254241;28;20072;-71
2022/01/31 04:51:57;;;;;;;14.77;2.67;;;;;;;4.32;100.00;100746.91;5248839;28;20113;-71
2022/01/31 04:54:28;;;;;;;18.13;3.13;;;;;;;4.28;100.00;100734.81;5248043;28;20029;-71
2022/01/31 04:56:59;;;;;;;19.02;3.15;;;;;;;4.26;100.00;100738.47;5247134;28;20111;-71
2022/01/31 04:59:32;;;;;;;19.52;3.25;;;;;;;4.30;100.00;100738.22;5250767;28;20051;-70
2022/01/31 05:02:04;;;;;;;16.20;3.00;;;;;;;4.32;100.00;100735.50;5279793;28;20052;-71
2022/01/31 05:04:35;;;;;;;18.90;3.00;;;;;;;4.29;100.00;100740.94;5249000;28;20053;-70
2022/01/31 05:07:06;;;;;;;24.17;3.10;;;;;;;4.18;100.00;100740.63;5247805;28;20033;-70
2022/01/31 05:09:38;;;;;;;21.38;2.83;;;;;;;4.16;100.00;100732.81;5251815;28;20029;-70
2022/01/31 05:12:10;;;;;;;20.25;3.00;;;;;;;4.13;100.00;100730.31;5249202;28;20065;-70
2022/01/31 05:14:41;;;;;;;17.52;3.00;;;;;;;4.10;100.00;100730.47;5253079;28;20530;-70
2022/01/31 05:17:12;;;;;;;16.15;2.78;;;;;;;4.15;100.00;100727.59;5250244;28;20035;-70
2022/01/31 05:19:43;;;;;;;16.88;3.22;;;;;;;4.07;100.00;100720.94;5255299;28;20379;-70
2022/01/31 05:22:15;;;;;;;15.73;2.80;;;;;;;4.17;100.00;100713.38;5254457;28;20028;-70
2022/01/31 05:24:46;;;;;;;13.80;2.72;;;;;;;4.18;100.00;100714.22;5255109;28;20024;-70
2022/01/31 05:27:17;;;;;;;15.98;2.88;;;;;;;4.18;100.00;100707.19;5246378;28;20606;-70
2022/01/31 05:29:48;;;;;;;17.60;3.33;;;;;;;4.09;100.00;100707.66;5253140;28;20031;-69
2022/01/31 05:32:20;;;;;;;15.35;2.53;;;;;;;4.24;100.00;100701.56;5252050;28;20602;-70
2022/01/31 05:34:51;;;;;;;18.88;3.22;;;;;;;4.26;100.00;100697.06;5249888;28;20029;-69
2022/01/31 05:37:22;;;;;;;12.05;2.53;;;;;;;4.23;100.00;100696.38;5249886;28;20075;-69
2022/01/31 05:39:54;;;;;;;19.77;3.90;;;;;;;4.10;100.00;100685.59;5251940;28;20037;-69
2022/01/31 05:42:25;;;;;;;22.25;3.60;;;;;;;4.13;100.00;100683.63;5252947;28;20033;-69
2022/01/31 05:44:56;;;;;;;16.70;2.95;;;;;;;4.17;100.00;100683.50;5251211;28;20371;-70
2022/01/31 05:47:27;;;;;;;18.55;3.17;;;;;;;4.10;100.00;100678.53;5255710;28;20047;-70
2022/01/31 05:49:59;;;;;;;21.55;3.47;;;;;;;4.10;100.00;100673.25;5251293;28;20033;-70
2022/01/31 05:52:30;;;;;;;21.27;3.33;;;;;;;4.09;100.00;100670.69;5252637;28;20028;-71
2022/01/31 05:55:02;;;;;;;20.63;3.08;;;;;;;4.07;100.00;100665.47;5251851;28;20071;-70
2022/01/31 05:57:34;;;;;;;22.75;3.00;;;;;;;4.05;100.00;100671.78;5258048;28;20036;-71
2022/01/31 06:00:07;;;;;;;18.60;3.72;;;;;;;4.02;100.00;100691.25;5252583;28;20067;-71
2022/01/31 06:02:39;;;;;;;21.02;3.08;;;;;;;3.99;100.00;100674.72;5252471;28;20032;-72
2022/01/31 06:05:10;;;;;;;16.63;2.95;;;;;;;3.98;100.00;100699.44;5254823;28;20055;-74
2022/01/31 06:07:41;;;;;;;15.55;4.43;;;;;;;3.94;100.00;100704.00;5257821;28;20028;-74
2022/01/31 06:10:13;;;;;;;18.13;3.35;;;;;;;3.91;100.00;100704.16;5261031;28;20056;-76
2022/01/31 06:12:45;;;;;;;22.80;3.65;;;;;;;3.84;100.00;100694.88;5252377;28;20506;-76
2022/01/31 06:15:17;;;;;;;19.30;3.90;;;;;;;3.81;100.00;100719.59;5258009;28;20507;-77
2022/01/31 06:17:48;;;;;;;20.75;4.57;;;;;;;3.77;100.00;100715.41;5253682;28;20031;-79
2022/01/31 06:20:19;;;;;;;24.42;3.53;;;;;;;3.77;100.00;100719.84;5253857;28;20108;-79
2022/01/31 06:22:51;;;;;;;19.75;3.67;;;;;;;3.76;100.00;100711.09;5256079;28;20032;-79
2022/01/31 06:25:22;;;;;;;25.67;3.97;;;;;;;3.73;100.00;100711.22;5255768;28;20047;-78
2022/01/31 06:27:53;;;;;;;23.40;3.17;;;;;;;3.72;100.00;100706.88;5253918;28;20052;-78
2022/01/31 06:30:25;;;;;;;21.92;3.20;;;;;;;3.73;100.00;100704.16;5251590;28;20033;-78
2022/01/31 06:32:57;;;;;;;19.70;3.60;;;;;;;3.76;100.00;100710.22;5250057;28;20027;-77
2022/01/31 06:35:28;;;;;;;19.02;3.83;;;;;;;3.70;100.00;100714.00;5254322;28;20486;-77
2022/01/31 06:38:00;;;;;;;18.40;3.50;;;;;;;3.70;100.00;100704.34;5253453;28;20383;-76
2022/01/31 06:40:31;;;;;;;24.92;3.63;;;;;;;3.69;100.00;100692.06;5252232;28;20104;-76
2022/01/31 06:43:02;;;;;;;19.45;3.58;;;;;;;3.67;100.00;100701.00;5252741;28;20029;-76
2022/01/31 06:45:34;;;;;;;20.70;3.67;;;;;;;3.62;100.00;100703.84;5245965;28;20626;-76
2022/01/31 06:48:06;;;;;;;19.13;2.95;;;;;;;3.65;100.00;100719.53;5240681;28;20115;-75
2022/01/31 06:50:38;;;;;;;22.83;3.50;;;;;;;3.58;100.00;100707.56;5242827;28;20029;-75
2022/01/31 06:53:11;;;;;;;16.00;3.45;;;;;;;3.58;100.00;100704.94;5247931;28;20087;-75
2022/01/31 06:55:43;;;;;;;21.77;4.03;;;;;;;3.50;100.00;100707.94;5264952;28;20425;-75
2022/01/31 06:58:14;;;;;;;17.05;3.78;;;;;;;3.56;100.00;100706.78;5252004;28;20036;-74
2022/01/31 07:00:46;;;;;;;18.52;3.30;;;;;;;3.58;100.00;100727.81;5250117;28;20028;-74
2022/01/31 07:03:17;;;;;;;18.17;4.25;;;;;;;3.52;100.00;100715.78;5249653;28;20036;-75
2022/01/31 07:05:48;;;;;;;19.00;3.20;;;;;;;3.47;100.00;100707.25;5249958;28;20032;-75
2022/01/31 07:08:19;;;;;;;23.98;3.88;;;;;;;3.47;100.00;100715.16;5251588;28;20035;-74
2022/01/31 07:10:52;;;;;;;19.75;3.42;;;;;;;3.45;100.00;100714.38;5252495;28;20068;-74
2022/01/31 07:16:04;;;;;;;19.67;4.15;;;;;;;3.47;100.00;100704.59;5251923;28;20088;-74
2022/01/31 07:18:37;;;;;;;24.17;4.07;;;;;;;3.48;100.00;100703.69;5249770;28;20039;-74
2022/01/31 07:21:13;;;;;;;23.77;4.20;;;;;;;3.48;100.00;100701.88;5249795;28;20064;-75
2022/01/31 07:24:03;;;;;;;18.92;3.60;;;;;;;3.42;100.00;100699.56;5250362;28;20416;-74
2022/01/31 07:26:35;;;;;;;22.23;3.80;;;;;;;3.43;100.00;100687.22;5252392;28;20056;-74
2022/01/31 07:29:06;;;;;;;29.85;4.60;;;;;;;3.47;100.00;100678.22;5256079;28;20041;-74
2022/01/31 07:31:39;;;;;;;22.15;4.18;;;;;;;3.54;100.00;100687.53;5255164;28;20029;-73
2022/01/31 07:34:13;;;;;;;24.75;4.00;;;;;;;3.49;100.00;100679.88;5251479;28;20035;-74
2022/01/31 07:36:45;;;;;;;23.38;3.80;;;;;;;3.49;100.00;100694.81;5253146;28;20082;-74
2022/01/31 07:39:18;;;;;;;21.48;3.90;;;;;;;3.51;100.00;100711.47;5253085;28;20033;-74
2022/01/31 07:41:49;;;;;;;20.27;3.88;;;;;;;3.54;100.00;100716.56;5254352;28;20047;-74
2022/01/31 07:44:21;;;;;;;24.58;4.20;;;;;;;3.53;100.00;100726.28;5252889;28;20021;-74
2022/01/31 07:46:52;;;;;;;25.80;4.28;;;;;;;3.57;100.00;100724.34;5252334;28;20366;-75
2022/01/31 07:49:23;;;;;;;25.80;4.13;;;;;;;3.53;100.00;100741.25;5252536;28;20467;-76
2022/01/31 07:51:56;;;;;;;25.98;4.15;;;;;;;3.53;100.00;100720.16;5250976;28;20032;-78
2022/01/31 07:54:28;;;;;;;22.15;4.50;;;;;;;3.58;100.00;100719.91;5252452;28;20031;-77
2022/01/31 07:56:59;;;;;;;28.67;4.22;;;;;;;3.53;100.00;100736.81;5250673;28;20024;-77
2022/01/31 07:59:30;;;;;;;28.73;5.18;;;;;;;3.49;100.00;100727.34;5252181;28;20510;-79
2022/01/31 08:02:02;;;;;;;27.48;4.40;;;;;;;3.49;100.00;100718.56;5254306;28;20071;-77
2022/01/31 08:04:33;;;;;;;26.70;4.00;;;;;;;3.52;100.00;100719.28;5250040;28;20032;-78
2022/01/31 08:07:04;;;;;;;28.70;5.28;;;;;;;3.51;100.00;100716.72;5255145;28;20037;-78
2022/01/31 08:09:36;;;;;;;25.75;4.43;;;;;;;3.53;100.00;100709.59;5253299;28;20056;-76
2022/01/31 08:12:08;;;;;;;29.83;5.57;;;;;;;3.54;100.00;100716.56;5254975;28;20032;-77
2022/01/31 08:14:39;;;;;;;33.35;5.18;;;;;;;3.55;100.00;100710.38;5254484;28;20140;-77
2022/01/31 08:17:10;;;;;;;28.00;3.97;;;;;;;3.57;100.00;100713.78;5255524;28;20048;-77
2022/01/31 08:19:41;;;;;;;27.73;4.90;;;;;;;3.57;100.00;100719.06;5252543;28;20407;-75
2022/01/31 08:22:13;;;;;;;26.42;4.72;;;;;;;3.59;100.00;100708.44;5254620;28;20504;-77
2022/01/31 08:24:44;;;;;;;25.50;5.03;;;;;;;3.60;100.00;100733.88;5254127;28;20029;-76
2022/01/31 08:27:15;;;;;;;25.83;4.85;;;;;;;3.59;100.00;100734.81;5253481;28;20037;-77
2022/01/31 08:29:47;;;;;;;25.65;5.30;;;;;;;3.61;100.00;100725.88;5254142;28;20456;-77
2022/01/31 08:32:23;;;;;;;26.65;4.18;;;;;;;3.59;100.00;100740.94;5253710;28;20457;-77
2022/01/31 08:37:44;;;;;;;30.35;4.68;;;;;;;3.66;100.00;100734.44;5255033;28;20152;-77
2022/01/31 08:40:17;;;;;;;21.95;4.50;;;;;;;3.65;100.00;100740.63;5251946;28;20025;-78
2022/01/31 08:42:49;;;;;;;31.40;4.70;;;;;;;3.59;100.00;100735.66;5254738;28;20021;-78
2022/01/31 08:45:20;;;;;;;31.90;4.60;;;;;;;3.59;100.00;100740.09;5256677;28;20043;-79
2022/01/31 08:47:51;;;;;;;30.45;4.95;;;;;;;3.67;100.00;100749.31;5249345;28;20028;-78
2022/01/31 08:50:22;;;;;;;23.08;4.25;;;;;;;3.64;100.00;100738.91;5252840;28;20033;-77
2022/01/31 08:52:54;;;;;;;30.95;4.75;;;;;;;3.69;100.00;100742.19;5250981;28;20040;-78
2022/01/31 08:55:25;;;;;;;31.08;4.35;;;;;;;3.70;100.00;100728.06;5252455;28;20029;-78
2022/01/31 08:57:57;;;;;;;35.15;5.70;;;;;;;3.68;100.00;100734.34;5249679;28;20017;-77
2022/01/31 09:00:36;;;;;;;26.80;4.50;;;;;;;3.69;100.00;100747.47;5249746;28;20021;-77
2022/01/31 09:05:39;;;;;;;28.35;4.70;;;;;;;3.71;100.00;100777.25;5253509;28;20033;-78
2022/01/31 09:08:11;;;;;;;37.05;5.55;;;;;;;3.69;100.00;100778.28;5251815;28;20025;-80
2022/01/31 09:10:44;;;;;;;25.10;4.10;;;;;;;3.69;100.00;100779.13;5255480;28;20051;-80
2022/01/31 09:13:17;;;;;;;33.95;4.68;;;;;;;3.67;100.00;100780.16;5255675;28;20533;-81
2022/01/31 09:15:49;;;;;;;29.45;4.93;;;;;;;3.66;100.00;100776.66;5252424;28;20063;-83
2022/01/31 09:18:21;;;;;;;28.10;4.93;;;;;;;3.73;100.00;100780.69;5252602;28;20229;-82
2022/01/31 09:20:52;;;;;;;26.85;4.47;;;;;;;3.65;100.00;100767.00;5259121;28;20478;-82
2022/01/31 09:23:27;;;;;;;26.05;4.32;;;;;;;3.73;100.00;100787.75;5254723;28;20044;-81
2022/01/31 09:25:59;;;;;;;23.10;5.03;;;;;;;3.78;100.00;100777.84;5254323;28;20511;-79
2022/01/31 09:28:30;;;;;;;28.15;5.03;;;;;;;3.71;100.00;100755.31;5253525;28;20057;-82
2022/01/31 09:31:02;;;;;;;24.63;4.82;;;;;;;3.77;100.00;100762.91;5254318;28;20526;-80
2022/01/31 09:33:34;;;;;;;29.02;5.43;;;;;;;3.84;100.00;100769.59;5249925;28;20115;-79
2022/01/31 09:36:05;;;;;;;29.45;5.32;;;;;;;3.78;100.00;100793.66;5250616;28;20037;-78
2022/01/31 09:38:36;;;;;;;28.10;5.43;;;;;;;3.72;100.00;100757.88;5251301;28;20395;-79
2022/01/31 09:41:10;;;;;;;31.52;4.28;;;;;;;3.70;100.00;100769.41;5254539;28;20075;-80
2022/01/31 09:46:43;;;;;;;25.08;4.57;;;;;;;3.74;100.00;100781.56;5249645;28;20037;-79
2022/01/31 09:49:08;;;;;;;27.63;5.03;;;;;;;3.78;100.00;100808.63;5252356;28;20055;-78
2022/01/31 09:51:39;;;;;;;31.92;6.18;;;;;;;3.74;100.00;100807.94;5251296;28;20115;-77
2022/01/31 09:54:11;;;;;;;34.28;5.35;;;;;;;3.68;100.00;100814.38;5263889;28;20451;-77
2022/01/31 09:56:45;;;;;;;31.38;5.43;;;;;;;3.67;100.00;100828.47;5252919;28;20039;-81
2022/01/31 09:59:17;;;;;;;26.67;4.53;;;;;;;3.63;100.00;100818.16;5257217;28;20025;-81
2022/01/31 10:01:55;;;;;;;36.17;6.20;;;;;;;3.63;100.00;100834.00;5256884;28;20025;-81
2022/01/31 10:04:34;;;;;;;39.45;5.93;;;;;;;3.66;100.00;100871.63;5258411;28;20047;-76
2022/01/31 10:07:05;;;;;;;34.60;5.95;;;;;;;3.65;100.00;100845.31;5253840;28;20395;-80
2022/01/31 10:09:37;;;;;;;42.63;7.70;;;;;;;3.64;100.00;100847.09;5257278;28;20028;-80
2022/01/31 10:16:25;;;;;;;38.95;5.97;;;;;;;3.64;100.00;100848.88;5254092;28;20174;-80
2022/01/31 10:18:00;;;;;;;46.72;7.75;;;;;;;3.66;100.00;100860.22;5253052;28;20044;-79
2022/01/31 10:20:34;;;;;;;42.53;6.47;;;;;;;3.63;100.00;100848.03;5260509;28;20029;-80
2022/01/31 10:23:11;;;;;;;40.40;6.57;;;;;;;3.67;100.00;100857.50;5253986;28;20032;-80
2022/01/31 10:25:43;;;;;;;42.47;6.80;;;;;;;3.65;100.00;100861.16;5247550;28;20519;-80
2022/01/31 10:28:19;;;;;;;50.40;7.07;;;;;;;3.67;100.00;100872.50;5255235;28;20036;-79
2022/01/31 10:30:52;;;;;;;38.15;7.30;;;;;;;3.76;100.00;100879.97;5252420;28;20057;-80
2022/01/31 10:33:27;;;;;;;42.33;8.15;;;;;;;3.80;100.00;100897.38;5249526;28;20029;-81
2022/01/31 10:36:00;;;;;;;45.33;7.20;;;;;;;3.73;100.00;100880.09;5247727;28;20383;-78
2022/01/31 10:38:37;;;;;;;42.95;7.28;;;;;;;3.72;100.00;100899.50;5250857;28;20490;-78
2022/01/31 10:44:54;;;;;;;47.67;8.05;;;;;;;3.70;100.00;100883.75;5248049;28;20033;-77
2022/01/31 10:50:45;;;;;;;43.60;7.80;;;;;;;3.72;100.00;100908.28;5252356;28;20425;-75
2022/01/31 10:53:16;;;;;;;45.78;7.30;;;;;;;3.70;100.00;100911.91;5248232;28;20026;-75
2022/01/31 10:55:53;;;;;;;47.17;7.50;;;;;;;3.66;100.00;100905.06;5250936;28;20066;-75
2022/01/31 10:58:24;;;;;;;40.67;7.57;;;;;;;3.71;100.00;100924.19;5252309;28;20033;-75
2022/01/31 11:01:11;;;;;;;42.45;8.02;;;;;;;3.63;100.00;100923.69;5253570;28;20493;-76
2022/01/31 11:03:45;;;;;;;30.85;6.30;;;;;;;3.66;100.00;100945.53;5252092;28;20067;-76
2022/01/31 11:06:17;;;;;;;31.15;5.22;;;;;;;3.71;100.00;100932.94;5259757;28;20028;-76
2022/01/31 11:08:48;;;;;;;36.53;7.97;;;;;;;3.69;100.00;100921.59;5256512;28;20534;-75
2022/01/31 11:11:20;;;;;;;32.72;6.18;;;;;;;3.69;100.00;100918.97;5255270;28;20127;-75
2022/01/31 11:13:54;;;;;;;46.13;7.32;;;;;;;3.68;100.00;100941.03;5256583;28;21847;-76
2022/01/31 11:16:27;;;;;;;38.47;8.20;;;;;;;3.72;100.00;100934.66;5256349;28;20190;-76
2022/01/31 11:19:02;;;;;;;39.15;6.97;;;;;;;3.72;100.00;100944.34;5255623;28;20051;-76
2022/01/31 11:21:37;;;;;;;42.20;7.53;;;;;;;3.71;100.00;100946.13;5256816;28;20467;-76
2022/01/31 11:24:18;;;;;;;35.78;7.25;;;;;;;3.73;100.00;100954.00;5256072;28;20107;-75
2022/01/31 11:26:54;;;;;;;40.63;8.80;;;;;;;3.80;100.00;100936.09;5256339;28;20120;-76
2022/01/31 11:29:25;;;;;;;35.25;8.02;;;;;;;3.80;100.00;100944.88;5258961;28;20055;-76
2022/01/31 11:31:58;;;;;;;42.50;7.28;;;;;;;3.75;100.00;100938.94;5258105;28;20024;-76
2022/01/31 11:34:30;;;;;;;36.53;6.40;;;;;;;3.79;100.00;100948.41;5257241;28;20104;-78
2022/01/31 11:37:02;;;;;;;39.70;6.88;;;;;;;3.72;100.00;100955.78;5261486;28;20122;-77
2022/01/31 11:39:34;;;;;;;43.47;7.93;;;;;;;3.77;100.00;100974.03;5257824;28;20441;-78
2022/01/31 11:42:06;;;;;;;31.48;7.38;;;;;;;3.80;100.00;100965.97;5255030;28;20483;-76
2022/01/31 11:45:01;;;;;;;39.05;7.32;;;;;;;3.69;100.00;100971.75;5260727;28;20489;-76
2022/01/31 11:47:35;;;;;;;41.58;8.38;;;;;;;3.70;100.00;100951.47;5256564;28;20033;-77
2022/01/31 11:50:12;;;;;;;41.90;7.45;;;;;;;3.67;100.00;100978.03;5256168;28;20467;-75
2022/01/31 11:52:47;;;;;;;46.53;8.23;;;;;;;3.71;100.00;100966.41;5256606;28;20025;-78
2022/01/31 11:55:22;;;;;;;47.85;7.38;;;;;;;3.67;100.00;100978.03;5256767;28;20196;-78
2022/01/31 11:57:54;;;;;;;45.53;7.47;;;;;;;3.71;100.00;100985.72;5257907;28;20025;-77
2022/01/31 12:00:28;;;;;;;47.95;8.00;;;;;;;3.72;100.00;100995.38;5257874;28;20025;-77
2022/01/31 12:03:05;;;;;;;42.28;7.93;;;;;;;3.67;100.00;100992.06;5254217;28;20029;-77